Saint Elmo, Illinois
Current Conditions -  °F | °C
As of 8:35 PM on Saturday 20 Dec 2014 (Local Time) from K1H2 Reporting Station
Overcast Overcast  
Wind Chill: 31°   Ceiling: 2700
Heat Index: 31°   Visibility: 7mi
Dew Point: 27°   Wind: 3mph
Humidity: 85%   Direction: 100°E
Pressure: 30.3"   Gusts: NA
Location:  39.03°N, 88.85°W
Report Text: K1H2 210235Z AUTO 10003KT 7SM OVC027 M01/M03 A3030 RMK AO2 T10081030
Loading
Personal Weather Stations






























Interactive Weather Map New forecast layout! Learn more

10-Day Weather Forecast

Advertisements
Track Severe Weather on mobile